sensor_id;sensor_type;location;lat;lon;timestamp;P1;durP1;ratioP1;P2;durP2;ratioP2
8466;SDS011;4270;48.148;11.648;2023-08-06T00:00:07;10.77;;;8.47;;
8466;SDS011;4270;48.148;11.648;2023-08-06T00:02:33;10.80;;;7.60;;
8466;SDS011;4270;48.148;11.648;2023-08-06T00:04:58;8.80;;;7.70;;
8466;SDS011;4270;48.148;11.648;2023-08-06T00:07:24;8.93;;;6.77;;
8466;SDS011;4270;48.148;11.648;2023-08-06T00:09:49;12.73;;;9.23;;
8466;SDS011;4270;48.148;11.648;2023-08-06T00:12:14;8.30;;;7.17;;
8466;SDS011;4270;48.148;11.648;2023-08-06T00:14:39;9.20;;;7.20;;
8466;SDS011;4270;48.148;11.648;2023-08-06T00:17:04;9.60;;;7.50;;
8466;SDS011;4270;48.148;11.648;2023-08-06T00:19:30;8.43;;;7.00;;
8466;SDS011;4270;48.148;11.648;2023-08-06T00:21:56;9.60;;;7.40;;
8466;SDS011;4270;48.148;11.648;2023-08-06T00:24:21;10.50;;;6.40;;
8466;SDS011;4270;48.148;11.648;2023-08-06T00:26:46;7.43;;;6.10;;
8466;SDS011;4270;48.148;11.648;2023-08-06T00:29:11;8.20;;;5.97;;
8466;SDS011;4270;48.148;11.648;2023-08-06T00:31:36;7.87;;;6.10;;
8466;SDS011;4270;48.148;11.648;2023-08-06T00:34:01;8.33;;;6.17;;
8466;SDS011;4270;48.148;11.648;2023-08-06T00:36:26;8.87;;;5.93;;
8466;SDS011;4270;48.148;11.648;2023-08-06T00:38:52;8.37;;;5.90;;
8466;SDS011;4270;48.148;11.648;2023-08-06T00:41:17;9.60;;;5.70;;
8466;SDS011;4270;48.148;11.648;2023-08-06T00:43:42;7.20;;;5.50;;
8466;SDS011;4270;48.148;11.648;2023-08-06T00:46:07;7.07;;;5.40;;
8466;SDS011;4270;48.148;11.648;2023-08-06T00:48:33;9.43;;;5.27;;
8466;SDS011;4270;48.148;11.648;2023-08-06T00:50:58;6.07;;;4.63;;
8466;SDS011;4270;48.148;11.648;2023-08-06T00:53:23;6.03;;;5.43;;
8466;SDS011;4270;48.148;11.648;2023-08-06T00:55:49;5.80;;;4.57;;
8466;SDS011;4270;48.148;11.648;2023-08-06T00:58:15;5.10;;;4.60;;
8466;SDS011;4270;48.148;11.648;2023-08-06T01:00:41;4.67;;;4.27;;
8466;SDS011;4270;48.148;11.648;2023-08-06T01:03:06;5.90;;;4.67;;
8466;SDS011;4270;48.148;11.648;2023-08-06T01:05:31;5.20;;;4.17;;
8466;SDS011;4270;48.148;11.648;2023-08-06T01:10:38;7.63;;;4.97;;
8466;SDS011;4270;48.148;11.648;2023-08-06T01:13:24;5.90;;;4.10;;
8466;SDS011;4270;48.148;11.648;2023-08-06T01:15:54;4.43;;;4.03;;
8466;SDS011;4270;48.148;11.648;2023-08-06T01:18:20;5.10;;;4.47;;
8466;SDS011;4270;48.148;11.648;2023-08-06T01:20:46;4.90;;;4.50;;
8466;SDS011;4270;48.148;11.648;2023-08-06T01:23:11;6.20;;;4.33;;
8466;SDS011;4270;48.148;11.648;2023-08-06T01:28:13;5.23;;;4.73;;
8466;SDS011;4270;48.148;11.648;2023-08-06T01:30:40;5.07;;;4.40;;
8466;SDS011;4270;48.148;11.648;2023-08-06T01:33:06;4.83;;;4.33;;
8466;SDS011;4270;48.148;11.648;2023-08-06T01:35:34;5.60;;;5.10;;
8466;SDS011;4270;48.148;11.648;2023-08-06T01:38:00;5.27;;;4.70;;
8466;SDS011;4270;48.148;11.648;2023-08-06T01:40:26;4.87;;;4.40;;
8466;SDS011;4270;48.148;11.648;2023-08-06T01:42:53;4.80;;;4.30;;
8466;SDS011;4270;48.148;11.648;2023-08-06T01:45:18;6.57;;;4.43;;
8466;SDS011;4270;48.148;11.648;2023-08-06T01:47:43;6.60;;;4.40;;
8466;SDS011;4270;48.148;11.648;2023-08-06T01:50:08;6.47;;;4.77;;
8466;SDS011;4270;48.148;11.648;2023-08-06T01:52:34;4.80;;;4.30;;
8466;SDS011;4270;48.148;11.648;2023-08-06T01:54:59;6.80;;;4.60;;
8466;SDS011;4270;48.148;11.648;2023-08-06T01:57:24;5.97;;;4.60;;
8466;SDS011;4270;48.148;11.648;2023-08-06T01:59:49;6.60;;;4.70;;
8466;SDS011;4270;48.148;11.648;2023-08-06T02:02:14;5.73;;;5.10;;
8466;SDS011;4270;48.148;11.648;2023-08-06T02:04:40;9.43;;;5.23;;
8466;SDS011;4270;48.148;11.648;2023-08-06T02:07:05;6.13;;;4.90;;
8466;SDS011;4270;48.148;11.648;2023-08-06T02:09:30;5.17;;;4.43;;
8466;SDS011;4270;48.148;11.648;2023-08-06T02:11:55;5.00;;;4.30;;
8466;SDS011;4270;48.148;11.648;2023-08-06T02:14:20;7.67;;;4.70;;
8466;SDS011;4270;48.148;11.648;2023-08-06T02:16:46;5.20;;;4.70;;
8466;SDS011;4270;48.148;11.648;2023-08-06T02:19:11;6.50;;;5.30;;
8466;SDS011;4270;48.148;11.648;2023-08-06T02:21:36;7.50;;;5.37;;
8466;SDS011;4270;48.148;11.648;2023-08-06T02:24:01;6.03;;;5.40;;
8466;SDS011;4270;48.148;11.648;2023-08-06T02:26:27;6.30;;;5.10;;
8466;SDS011;4270;48.148;11.648;2023-08-06T02:28:52;6.17;;;4.80;;
8466;SDS011;4270;48.148;11.648;2023-08-06T02:31:17;4.27;;;3.87;;
8466;SDS011;4270;48.148;11.648;2023-08-06T02:33:42;4.03;;;3.50;;
8466;SDS011;4270;48.148;11.648;2023-08-06T02:36:07;6.73;;;4.20;;
8466;SDS011;4270;48.148;11.648;2023-08-06T02:38:33;4.73;;;4.10;;
8466;SDS011;4270;48.148;11.648;2023-08-06T02:40:58;4.93;;;4.43;;
8466;SDS011;4270;48.148;11.648;2023-08-06T02:43:23;5.40;;;4.20;;
8466;SDS011;4270;48.148;11.648;2023-08-06T02:45:49;4.83;;;4.13;;
8466;SDS011;4270;48.148;11.648;2023-08-06T02:48:14;5.43;;;4.17;;
8466;SDS011;4270;48.148;11.648;2023-08-06T02:50:39;4.47;;;4.03;;
8466;SDS011;4270;48.148;11.648;2023-08-06T02:53:05;6.20;;;4.30;;
8466;SDS011;4270;48.148;11.648;2023-08-06T02:55:31;4.67;;;3.90;;
8466;SDS011;4270;48.148;11.648;2023-08-06T02:57:56;5.40;;;3.97;;
8466;SDS011;4270;48.148;11.648;2023-08-06T03:00:21;4.80;;;3.70;;
8466;SDS011;4270;48.148;11.648;2023-08-06T03:02:46;4.73;;;3.73;;
8466;SDS011;4270;48.148;11.648;2023-08-06T03:05:11;3.93;;;3.13;;
8466;SDS011;4270;48.148;11.648;2023-08-06T03:07:37;4.20;;;3.80;;
8466;SDS011;4270;48.148;11.648;2023-08-06T03:10:02;3.93;;;3.50;;
8466;SDS011;4270;48.148;11.648;2023-08-06T03:12:27;3.83;;;3.40;;
8466;SDS011;4270;48.148;11.648;2023-08-06T03:14:53;5.20;;;3.70;;
8466;SDS011;4270;48.148;11.648;2023-08-06T03:17:18;4.47;;;3.73;;
8466;SDS011;4270;48.148;11.648;2023-08-06T03:19:43;4.90;;;3.70;;
8466;SDS011;4270;48.148;11.648;2023-08-06T03:22:09;3.70;;;3.17;;
8466;SDS011;4270;48.148;11.648;2023-08-06T03:24:34;4.53;;;3.10;;
8466;SDS011;4270;48.148;11.648;2023-08-06T03:26:59;4.37;;;3.37;;
8466;SDS011;4270;48.148;11.648;2023-08-06T03:29:24;4.17;;;3.67;;
8466;SDS011;4270;48.148;11.648;2023-08-06T03:31:49;4.40;;;3.50;;
8466;SDS011;4270;48.148;11.648;2023-08-06T03:34:14;11.43;;;4.60;;
8466;SDS011;4270;48.148;11.648;2023-08-06T03:36:40;4.80;;;3.80;;
8466;SDS011;4270;48.148;11.648;2023-08-06T03:39:05;5.73;;;2.77;;
8466;SDS011;4270;48.148;11.648;2023-08-06T03:41:31;4.17;;;3.23;;
8466;SDS011;4270;48.148;11.648;2023-08-06T03:43:56;3.07;;;2.77;;
8466;SDS011;4270;48.148;11.648;2023-08-06T03:46:21;3.90;;;3.50;;
8466;SDS011;4270;48.148;11.648;2023-08-06T03:48:46;7.03;;;3.30;;
8466;SDS011;4270;48.148;11.648;2023-08-06T03:51:11;4.13;;;3.43;;
8466;SDS011;4270;48.148;11.648;2023-08-06T03:53:36;3.80;;;3.10;;
8466;SDS011;4270;48.148;11.648;2023-08-06T03:56:02;3.63;;;3.07;;
8466;SDS011;4270;48.148;11.648;2023-08-06T03:58:27;5.47;;;2.90;;
8466;SDS011;4270;48.148;11.648;2023-08-06T04:01:02;3.53;;;3.23;;
8466;SDS011;4270;48.148;11.648;2023-08-06T04:03:27;5.80;;;3.60;;
8466;SDS011;4270;48.148;11.648;2023-08-06T04:05:53;3.17;;;2.87;;
8466;SDS011;4270;48.148;11.648;2023-08-06T04:08:19;5.70;;;3.40;;
8466;SDS011;4270;48.148;11.648;2023-08-06T04:10:44;5.43;;;2.97;;
8466;SDS011;4270;48.148;11.648;2023-08-06T04:13:09;4.13;;;3.00;;
8466;SDS011;4270;48.148;11.648;2023-08-06T04:15:34;3.57;;;3.00;;
8466;SDS011;4270;48.148;11.648;2023-08-06T04:18:00;4.17;;;2.67;;
8466;SDS011;4270;48.148;11.648;2023-08-06T04:20:25;4.47;;;3.03;;
8466;SDS011;4270;48.148;11.648;2023-08-06T04:22:50;3.27;;;2.83;;
8466;SDS011;4270;48.148;11.648;2023-08-06T04:25:15;3.47;;;3.17;;
8466;SDS011;4270;48.148;11.648;2023-08-06T04:27:45;5.10;;;2.70;;
8466;SDS011;4270;48.148;11.648;2023-08-06T04:30:11;7.10;;;3.03;;
8466;SDS011;4270;48.148;11.648;2023-08-06T04:32:37;3.27;;;2.40;;
8466;SDS011;4270;48.148;11.648;2023-08-06T04:35:02;3.60;;;2.73;;
8466;SDS011;4270;48.148;11.648;2023-08-06T04:37:27;4.00;;;2.77;;
8466;SDS011;4270;48.148;11.648;2023-08-06T04:39:52;3.37;;;2.60;;
8466;SDS011;4270;48.148;11.648;2023-08-06T04:42:18;2.93;;;2.67;;
8466;SDS011;4270;48.148;11.648;2023-08-06T04:44:43;2.60;;;2.40;;
8466;SDS011;4270;48.148;11.648;2023-08-06T04:47:08;3.07;;;2.77;;
8466;SDS011;4270;48.148;11.648;2023-08-06T04:49:33;3.13;;;2.83;;
8466;SDS011;4270;48.148;11.648;2023-08-06T04:51:58;4.17;;;2.73;;
8466;SDS011;4270;48.148;11.648;2023-08-06T04:54:23;4.30;;;2.77;;
8466;SDS011;4270;48.148;11.648;2023-08-06T04:56:49;3.43;;;2.30;;
8466;SDS011;4270;48.148;11.648;2023-08-06T04:59:14;2.63;;;2.43;;
8466;SDS011;4270;48.148;11.648;2023-08-06T05:01:39;2.77;;;2.47;;
8466;SDS011;4270;48.148;11.648;2023-08-06T05:04:04;4.67;;;2.93;;
8466;SDS011;4270;48.148;11.648;2023-08-06T05:06:29;2.03;;;1.90;;
8466;SDS011;4270;48.148;11.648;2023-08-06T05:08:55;4.80;;;2.50;;
8466;SDS011;4270;48.148;11.648;2023-08-06T05:11:20;2.67;;;2.43;;
8466;SDS011;4270;48.148;11.648;2023-08-06T05:13:45;3.40;;;2.53;;
8466;SDS011;4270;48.148;11.648;2023-08-06T05:16:10;3.00;;;2.57;;
8466;SDS011;4270;48.148;11.648;2023-08-06T05:18:35;2.93;;;2.73;;
8466;SDS011;4270;48.148;11.648;2023-08-06T05:21:02;3.77;;;2.63;;
8466;SDS011;4270;48.148;11.648;2023-08-06T05:23:27;2.73;;;2.10;;
8466;SDS011;4270;48.148;11.648;2023-08-06T05:25:53;4.30;;;2.67;;
8466;SDS011;4270;48.148;11.648;2023-08-06T05:28:18;4.03;;;2.37;;
8466;SDS011;4270;48.148;11.648;2023-08-06T05:30:43;5.63;;;2.60;;
8466;SDS011;4270;48.148;11.648;2023-08-06T05:33:08;5.53;;;2.50;;
8466;SDS011;4270;48.148;11.648;2023-08-06T05:35:33;3.50;;;2.30;;
8466;SDS011;4270;48.148;11.648;2023-08-06T05:37:59;2.47;;;2.20;;
8466;SDS011;4270;48.148;11.648;2023-08-06T05:40:24;2.40;;;2.20;;
8466;SDS011;4270;48.148;11.648;2023-08-06T05:42:50;3.17;;;2.70;;
8466;SDS011;4270;48.148;11.648;2023-08-06T05:45:15;2.73;;;2.13;;
8466;SDS011;4270;48.148;11.648;2023-08-06T05:47:40;2.40;;;2.20;;
8466;SDS011;4270;48.148;11.648;2023-08-06T05:50:06;3.13;;;2.83;;
8466;SDS011;4270;48.148;11.648;2023-08-06T05:52:31;6.30;;;2.40;;
8466;SDS011;4270;48.148;11.648;2023-08-06T05:54:56;2.37;;;2.07;;
8466;SDS011;4270;48.148;11.648;2023-08-06T05:57:21;3.00;;;2.33;;
8466;SDS011;4270;48.148;11.648;2023-08-06T05:59:47;2.07;;;1.77;;
8466;SDS011;4270;48.148;11.648;2023-08-06T06:02:12;2.90;;;2.60;;
8466;SDS011;4270;48.148;11.648;2023-08-06T06:04:37;2.83;;;2.33;;
8466;SDS011;4270;48.148;11.648;2023-08-06T06:07:02;3.10;;;2.40;;
8466;SDS011;4270;48.148;11.648;2023-08-06T06:09:28;4.17;;;2.37;;
8466;SDS011;4270;48.148;11.648;2023-08-06T06:11:53;2.53;;;2.30;;
8466;SDS011;4270;48.148;11.648;2023-08-06T06:14:18;2.93;;;2.03;;
8466;SDS011;4270;48.148;11.648;2023-08-06T06:16:44;3.53;;;2.20;;
8466;SDS011;4270;48.148;11.648;2023-08-06T06:19:09;4.63;;;2.23;;
8466;SDS011;4270;48.148;11.648;2023-08-06T06:21:34;2.70;;;1.93;;
8466;SDS011;4270;48.148;11.648;2023-08-06T06:23:59;2.70;;;2.13;;
8466;SDS011;4270;48.148;11.648;2023-08-06T06:26:25;3.13;;;2.00;;
8466;SDS011;4270;48.148;11.648;2023-08-06T06:28:50;2.43;;;1.73;;
8466;SDS011;4270;48.148;11.648;2023-08-06T06:31:15;3.67;;;2.13;;
8466;SDS011;4270;48.148;11.648;2023-08-06T06:33:40;2.20;;;2.00;;
8466;SDS011;4270;48.148;11.648;2023-08-06T06:36:05;4.70;;;2.07;;
8466;SDS011;4270;48.148;11.648;2023-08-06T06:38:32;2.37;;;1.60;;
8466;SDS011;4270;48.148;11.648;2023-08-06T06:40:57;3.43;;;1.70;;
8466;SDS011;4270;48.148;11.648;2023-08-06T06:43:23;1.90;;;1.57;;
8466;SDS011;4270;48.148;11.648;2023-08-06T06:46:01;1.73;;;1.47;;
8466;SDS011;4270;48.148;11.648;2023-08-06T06:48:26;1.80;;;1.30;;
8466;SDS011;4270;48.148;11.648;2023-08-06T06:50:52;1.87;;;1.70;;
8466;SDS011;4270;48.148;11.648;2023-08-06T06:53:17;3.10;;;1.63;;
8466;SDS011;4270;48.148;11.648;2023-08-06T06:55:42;2.57;;;1.50;;
8466;SDS011;4270;48.148;11.648;2023-08-06T06:58:07;2.23;;;1.80;;
8466;SDS011;4270;48.148;11.648;2023-08-06T07:00:35;1.50;;;1.40;;
8466;SDS011;4270;48.148;11.648;2023-08-06T07:03:00;1.73;;;1.60;;
8466;SDS011;4270;48.148;11.648;2023-08-06T07:05:25;1.53;;;1.40;;
8466;SDS011;4270;48.148;11.648;2023-08-06T07:07:51;2.10;;;1.40;;
8466;SDS011;4270;48.148;11.648;2023-08-06T07:10:17;2.20;;;1.30;;
8466;SDS011;4270;48.148;11.648;2023-08-06T07:12:42;2.03;;;1.60;;
8466;SDS011;4270;48.148;11.648;2023-08-06T07:15:07;1.40;;;1.30;;
8466;SDS011;4270;48.148;11.648;2023-08-06T07:17:32;1.53;;;1.07;;
8466;SDS011;4270;48.148;11.648;2023-08-06T07:19:58;3.27;;;1.30;;
8466;SDS011;4270;48.148;11.648;2023-08-06T07:22:23;1.97;;;1.17;;
8466;SDS011;4270;48.148;11.648;2023-08-06T07:24:48;1.10;;;1.00;;
8466;SDS011;4270;48.148;11.648;2023-08-06T07:27:13;2.20;;;1.30;;
8466;SDS011;4270;48.148;11.648;2023-08-06T07:29:38;1.50;;;1.10;;
8466;SDS011;4270;48.148;11.648;2023-08-06T07:32:05;1.33;;;0.80;;
8466;SDS011;4270;48.148;11.648;2023-08-06T07:34:31;1.00;;;0.80;;
8466;SDS011;4270;48.148;11.648;2023-08-06T07:36:56;1.53;;;0.93;;
8466;SDS011;4270;48.148;11.648;2023-08-06T07:39:21;1.23;;;1.07;;
8466;SDS011;4270;48.148;11.648;2023-08-06T07:41:52;2.50;;;1.20;;
8466;SDS011;4270;48.148;11.648;2023-08-06T07:44:18;0.90;;;0.73;;
8466;SDS011;4270;48.148;11.648;2023-08-06T07:46:43;1.10;;;0.90;;
8466;SDS011;4270;48.148;11.648;2023-08-06T07:49:09;1.00;;;0.80;;
8466;SDS011;4270;48.148;11.648;2023-08-06T07:51:35;2.43;;;1.00;;
8466;SDS011;4270;48.148;11.648;2023-08-06T07:54:01;1.67;;;0.90;;
8466;SDS011;4270;48.148;11.648;2023-08-06T07:56:26;2.30;;;1.17;;
8466;SDS011;4270;48.148;11.648;2023-08-06T07:58:51;2.03;;;1.20;;
8466;SDS011;4270;48.148;11.648;2023-08-06T08:01:16;3.53;;;1.33;;
8466;SDS011;4270;48.148;11.648;2023-08-06T08:03:41;1.63;;;0.90;;
8466;SDS011;4270;48.148;11.648;2023-08-06T08:06:06;1.50;;;0.93;;
8466;SDS011;4270;48.148;11.648;2023-08-06T08:08:32;1.33;;;1.10;;
8466;SDS011;4270;48.148;11.648;2023-08-06T08:10:57;1.50;;;0.90;;
8466;SDS011;4270;48.148;11.648;2023-08-06T08:13:24;1.63;;;1.00;;
8466;SDS011;4270;48.148;11.648;2023-08-06T08:15:49;1.23;;;0.97;;
8466;SDS011;4270;48.148;11.648;2023-08-06T08:18:14;1.43;;;1.00;;
8466;SDS011;4270;48.148;11.648;2023-08-06T08:20:39;1.50;;;1.10;;
8466;SDS011;4270;48.148;11.648;2023-08-06T08:23:05;1.70;;;1.10;;
8466;SDS011;4270;48.148;11.648;2023-08-06T08:25:30;1.33;;;0.83;;
8466;SDS011;4270;48.148;11.648;2023-08-06T08:27:56;1.77;;;1.40;;
8466;SDS011;4270;48.148;11.648;2023-08-06T08:30:22;1.53;;;1.23;;
8466;SDS011;4270;48.148;11.648;2023-08-06T08:32:47;1.07;;;0.83;;
8466;SDS011;4270;48.148;11.648;2023-08-06T08:35:12;2.50;;;0.70;;
8466;SDS011;4270;48.148;11.648;2023-08-06T08:37:38;1.10;;;0.83;;
8466;SDS011;4270;48.148;11.648;2023-08-06T08:40:04;1.33;;;0.80;;
8466;SDS011;4270;48.148;11.648;2023-08-06T08:42:30;1.10;;;1.00;;
8466;SDS011;4270;48.148;11.648;2023-08-06T08:44:55;1.10;;;0.63;;
8466;SDS011;4270;48.148;11.648;2023-08-06T08:47:21;1.00;;;0.60;;
8466;SDS011;4270;48.148;11.648;2023-08-06T08:49:46;0.47;;;0.43;;
8466;SDS011;4270;48.148;11.648;2023-08-06T08:52:12;1.13;;;0.60;;
8466;SDS011;4270;48.148;11.648;2023-08-06T08:54:40;0.73;;;0.60;;
8466;SDS011;4270;48.148;11.648;2023-08-06T08:57:05;1.13;;;0.50;;
8466;SDS011;4270;48.148;11.648;2023-08-06T08:59:32;1.93;;;1.07;;
8466;SDS011;4270;48.148;11.648;2023-08-06T09:01:58;0.57;;;0.40;;
8466;SDS011;4270;48.148;11.648;2023-08-06T09:04:25;0.40;;;0.40;;
8466;SDS011;4270;48.148;11.648;2023-08-06T09:06:51;3.00;;;0.80;;
8466;SDS011;4270;48.148;11.648;2023-08-06T09:09:22;2.20;;;0.70;;
8466;SDS011;4270;48.148;11.648;2023-08-06T09:11:50;2.10;;;1.00;;
8466;SDS011;4270;48.148;11.648;2023-08-06T09:14:16;3.13;;;1.13;;
8466;SDS011;4270;48.148;11.648;2023-08-06T09:16:43;2.20;;;0.60;;
8466;SDS011;4270;48.148;11.648;2023-08-06T09:19:11;2.50;;;0.97;;
8466;SDS011;4270;48.148;11.648;2023-08-06T09:21:42;0.70;;;0.50;;
8466;SDS011;4270;48.148;11.648;2023-08-06T09:24:11;0.70;;;0.70;;
8466;SDS011;4270;48.148;11.648;2023-08-06T09:26:37;3.23;;;0.57;;
8466;SDS011;4270;48.148;11.648;2023-08-06T09:29:04;0.73;;;0.53;;
8466;SDS011;4270;48.148;11.648;2023-08-06T09:31:42;1.37;;;0.67;;
8466;SDS011;4270;48.148;11.648;2023-08-06T09:34:12;1.33;;;0.60;;
8466;SDS011;4270;48.148;11.648;2023-08-06T09:36:40;1.77;;;0.50;;
8466;SDS011;4270;48.148;11.648;2023-08-06T09:39:12;1.47;;;0.50;;
8466;SDS011;4270;48.148;11.648;2023-08-06T09:41:37;0.60;;;0.40;;
8466;SDS011;4270;48.148;11.648;2023-08-06T09:44:02;0.93;;;0.47;;
8466;SDS011;4270;48.148;11.648;2023-08-06T09:46:28;0.50;;;0.40;;
8466;SDS011;4270;48.148;11.648;2023-08-06T09:48:53;1.73;;;0.50;;
8466;SDS011;4270;48.148;11.648;2023-08-06T09:51:18;0.90;;;0.40;;
8466;SDS011;4270;48.148;11.648;2023-08-06T09:53:43;2.10;;;0.40;;
8466;SDS011;4270;48.148;11.648;2023-08-06T09:56:09;1.33;;;0.60;;
8466;SDS011;4270;48.148;11.648;2023-08-06T09:58:35;1.30;;;0.60;;
8466;SDS011;4270;48.148;11.648;2023-08-06T10:01:01;3.13;;;0.60;;
8466;SDS011;4270;48.148;11.648;2023-08-06T10:03:27;0.53;;;0.53;;
8466;SDS011;4270;48.148;11.648;2023-08-06T10:05:53;1.23;;;0.50;;
8466;SDS011;4270;48.148;11.648;2023-08-06T10:08:20;0.67;;;0.50;;
8466;SDS011;4270;48.148;11.648;2023-08-06T10:10:45;0.50;;;0.30;;
8466;SDS011;4270;48.148;11.648;2023-08-06T10:13:10;0.70;;;0.47;;
8466;SDS011;4270;48.148;11.648;2023-08-06T10:15:37;1.23;;;0.60;;
8466;SDS011;4270;48.148;11.648;2023-08-06T10:18:03;0.50;;;0.40;;
8466;SDS011;4270;48.148;11.648;2023-08-06T10:20:32;1.43;;;0.50;;
8466;SDS011;4270;48.148;11.648;2023-08-06T10:25:26;0.50;;;0.40;;
8466;SDS011;4270;48.148;11.648;2023-08-06T10:27:55;1.77;;;0.70;;
8466;SDS011;4270;48.148;11.648;2023-08-06T10:30:25;0.50;;;0.33;;
8466;SDS011;4270;48.148;11.648;2023-08-06T10:32:51;1.77;;;0.50;;
8466;SDS011;4270;48.148;11.648;2023-08-06T10:38:10;0.60;;;0.40;;
8466;SDS011;4270;48.148;11.648;2023-08-06T10:40:36;0.40;;;0.30;;
8466;SDS011;4270;48.148;11.648;2023-08-06T10:43:02;1.10;;;0.40;;
8466;SDS011;4270;48.148;11.648;2023-08-06T10:45:28;2.03;;;0.50;;
8466;SDS011;4270;48.148;11.648;2023-08-06T10:47:54;2.47;;;0.77;;
8466;SDS011;4270;48.148;11.648;2023-08-06T10:50:23;0.97;;;0.40;;
8466;SDS011;4270;48.148;11.648;2023-08-06T10:52:48;0.57;;;0.40;;
8466;SDS011;4270;48.148;11.648;2023-08-06T10:55:14;0.57;;;0.40;;
8466;SDS011;4270;48.148;11.648;2023-08-06T10:57:46;1.43;;;0.43;;
8466;SDS011;4270;48.148;11.648;2023-08-06T11:00:12;1.47;;;0.40;;
8466;SDS011;4270;48.148;11.648;2023-08-06T11:02:38;0.57;;;0.50;;
8466;SDS011;4270;48.148;11.648;2023-08-06T11:05:04;1.63;;;0.40;;
8466;SDS011;4270;48.148;11.648;2023-08-06T11:07:29;0.80;;;0.63;;
8466;SDS011;4270;48.148;11.648;2023-08-06T11:10:00;0.50;;;0.40;;
8466;SDS011;4270;48.148;11.648;2023-08-06T11:12:26;0.40;;;0.30;;
8466;SDS011;4270;48.148;11.648;2023-08-06T11:14:51;0.40;;;0.30;;
8466;SDS011;4270;48.148;11.648;2023-08-06T11:17:16;0.60;;;0.40;;
8466;SDS011;4270;48.148;11.648;2023-08-06T11:19:41;0.93;;;0.50;;
8466;SDS011;4270;48.148;11.648;2023-08-06T11:22:07;0.60;;;0.40;;
8466;SDS011;4270;48.148;11.648;2023-08-06T11:24:32;1.60;;;0.37;;
8466;SDS011;4270;48.148;11.648;2023-08-06T11:26:57;1.97;;;0.53;;
8466;SDS011;4270;48.148;11.648;2023-08-06T11:29:22;0.80;;;0.33;;
8466;SDS011;4270;48.148;11.648;2023-08-06T11:31:48;1.17;;;0.50;;
8466;SDS011;4270;48.148;11.648;2023-08-06T11:34:13;0.40;;;0.30;;
8466;SDS011;4270;48.148;11.648;2023-08-06T11:36:40;0.60;;;0.30;;
8466;SDS011;4270;48.148;11.648;2023-08-06T11:39:05;0.67;;;0.37;;
8466;SDS011;4270;48.148;11.648;2023-08-06T11:41:31;0.43;;;0.30;;
8466;SDS011;4270;48.148;11.648;2023-08-06T11:43:56;1.07;;;0.40;;
8466;SDS011;4270;48.148;11.648;2023-08-06T11:46:21;0.40;;;0.33;;
8466;SDS011;4270;48.148;11.648;2023-08-06T11:48:51;2.00;;;1.13;;
8466;SDS011;4270;48.148;11.648;2023-08-06T11:51:17;0.50;;;0.33;;
8466;SDS011;4270;48.148;11.648;2023-08-06T11:53:46;0.70;;;0.40;;
8466;SDS011;4270;48.148;11.648;2023-08-06T11:56:11;0.70;;;0.30;;
8466;SDS011;4270;48.148;11.648;2023-08-06T11:58:36;0.40;;;0.30;;
8466;SDS011;4270;48.148;11.648;2023-08-06T12:01:01;2.10;;;0.40;;
8466;SDS011;4270;48.148;11.648;2023-08-06T12:03:27;1.07;;;0.30;;
8466;SDS011;4270;48.148;11.648;2023-08-06T12:05:55;0.40;;;0.30;;
8466;SDS011;4270;48.148;11.648;2023-08-06T12:08:20;0.50;;;0.40;;
8466;SDS011;4270;48.148;11.648;2023-08-06T12:10:45;0.30;;;0.30;;
8466;SDS011;4270;48.148;11.648;2023-08-06T12:13:11;0.50;;;0.37;;
8466;SDS011;4270;48.148;11.648;2023-08-06T12:15:37;0.33;;;0.27;;
8466;SDS011;4270;48.148;11.648;2023-08-06T12:18:03;0.40;;;0.30;;
8466;SDS011;4270;48.148;11.648;2023-08-06T12:20:28;0.40;;;0.33;;
8466;SDS011;4270;48.148;11.648;2023-08-06T12:22:54;0.60;;;0.60;;
8466;SDS011;4270;48.148;11.648;2023-08-06T12:25:19;0.50;;;0.40;;
8466;SDS011;4270;48.148;11.648;2023-08-06T12:27:44;2.13;;;0.30;;
8466;SDS011;4270;48.148;11.648;2023-08-06T12:30:11;1.60;;;0.40;;
8466;SDS011;4270;48.148;11.648;2023-08-06T12:32:36;0.40;;;0.30;;
8466;SDS011;4270;48.148;11.648;2023-08-06T12:35:02;1.10;;;0.43;;
8466;SDS011;4270;48.148;11.648;2023-08-06T12:37:27;0.73;;;0.50;;
8466;SDS011;4270;48.148;11.648;2023-08-06T12:39:52;0.50;;;0.40;;
8466;SDS011;4270;48.148;11.648;2023-08-06T12:42:17;0.60;;;0.40;;
8466;SDS011;4270;48.148;11.648;2023-08-06T12:44:42;0.50;;;0.30;;
8466;SDS011;4270;48.148;11.648;2023-08-06T12:47:08;0.90;;;0.30;;
8466;SDS011;4270;48.148;11.648;2023-08-06T12:49:33;0.40;;;0.40;;
8466;SDS011;4270;48.148;11.648;2023-08-06T12:51:59;1.40;;;0.60;;
8466;SDS011;4270;48.148;11.648;2023-08-06T12:54:25;0.80;;;0.43;;
8466;SDS011;4270;48.148;11.648;2023-08-06T12:56:50;0.67;;;0.67;;
8466;SDS011;4270;48.148;11.648;2023-08-06T12:59:16;0.70;;;0.40;;
8466;SDS011;4270;48.148;11.648;2023-08-06T13:01:41;1.13;;;0.50;;
8466;SDS011;4270;48.148;11.648;2023-08-06T13:04:06;0.60;;;0.50;;
8466;SDS011;4270;48.148;11.648;2023-08-06T13:06:32;1.43;;;0.40;;
8466;SDS011;4270;48.148;11.648;2023-08-06T13:09:05;2.50;;;0.60;;
8466;SDS011;4270;48.148;11.648;2023-08-06T13:11:31;0.47;;;0.40;;
8466;SDS011;4270;48.148;11.648;2023-08-06T13:13:59;0.73;;;0.30;;
8466;SDS011;4270;48.148;11.648;2023-08-06T13:16:24;0.40;;;0.30;;
8466;SDS011;4270;48.148;11.648;2023-08-06T13:18:49;1.70;;;0.30;;
8466;SDS011;4270;48.148;11.648;2023-08-06T13:21:14;2.23;;;0.30;;
8466;SDS011;4270;48.148;11.648;2023-08-06T13:23:39;0.50;;;0.30;;
8466;SDS011;4270;48.148;11.648;2023-08-06T13:26:05;0.40;;;0.30;;
8466;SDS011;4270;48.148;11.648;2023-08-06T13:28:30;0.30;;;0.30;;
8466;SDS011;4270;48.148;11.648;2023-08-06T13:30:55;0.80;;;0.50;;
8466;SDS011;4270;48.148;11.648;2023-08-06T13:33:20;0.50;;;0.40;;
8466;SDS011;4270;48.148;11.648;2023-08-06T13:35:45;0.83;;;0.40;;
8466;SDS011;4270;48.148;11.648;2023-08-06T13:38:11;2.40;;;0.40;;
8466;SDS011;4270;48.148;11.648;2023-08-06T13:40:36;0.40;;;0.40;;
8466;SDS011;4270;48.148;11.648;2023-08-06T13:43:01;1.87;;;0.57;;
8466;SDS011;4270;48.148;11.648;2023-08-06T13:45:26;0.80;;;0.40;;
8466;SDS011;4270;48.148;11.648;2023-08-06T13:47:52;0.43;;;0.40;;
8466;SDS011;4270;48.148;11.648;2023-08-06T13:50:17;0.57;;;0.47;;
8466;SDS011;4270;48.148;11.648;2023-08-06T13:52:42;0.50;;;0.33;;
8466;SDS011;4270;48.148;11.648;2023-08-06T13:55:07;0.53;;;0.40;;
8466;SDS011;4270;48.148;11.648;2023-08-06T13:57:34;1.73;;;0.40;;
8466;SDS011;4270;48.148;11.648;2023-08-06T13:59:59;0.50;;;0.40;;
8466;SDS011;4270;48.148;11.648;2023-08-06T14:02:24;0.60;;;0.33;;
8466;SDS011;4270;48.148;11.648;2023-08-06T14:04:50;1.23;;;0.40;;
8466;SDS011;4270;48.148;11.648;2023-08-06T14:07:15;0.40;;;0.30;;
8466;SDS011;4270;48.148;11.648;2023-08-06T14:09:40;0.40;;;0.33;;
8466;SDS011;4270;48.148;11.648;2023-08-06T14:12:07;2.53;;;1.23;;
8466;SDS011;4270;48.148;11.648;2023-08-06T14:14:32;0.30;;;0.30;;
8466;SDS011;4270;48.148;11.648;2023-08-06T14:16:57;0.40;;;0.30;;
8466;SDS011;4270;48.148;11.648;2023-08-06T14:19:23;0.40;;;0.40;;
8466;SDS011;4270;48.148;11.648;2023-08-06T14:21:48;0.43;;;0.43;;
8466;SDS011;4270;48.148;11.648;2023-08-06T14:24:13;0.60;;;0.40;;
8466;SDS011;4270;48.148;11.648;2023-08-06T14:26:38;1.27;;;0.40;;
8466;SDS011;4270;48.148;11.648;2023-08-06T14:29:03;1.03;;;0.40;;
8466;SDS011;4270;48.148;11.648;2023-08-06T14:31:29;0.77;;;0.50;;
8466;SDS011;4270;48.148;11.648;2023-08-06T14:33:54;0.50;;;0.40;;
8466;SDS011;4270;48.148;11.648;2023-08-06T14:36:19;0.40;;;0.30;;
8466;SDS011;4270;48.148;11.648;2023-08-06T14:38:45;0.60;;;0.60;;
8466;SDS011;4270;48.148;11.648;2023-08-06T14:41:10;0.60;;;0.50;;
8466;SDS011;4270;48.148;11.648;2023-08-06T14:43:35;0.70;;;0.50;;
8466;SDS011;4270;48.148;11.648;2023-08-06T14:46:01;0.60;;;0.60;;
8466;SDS011;4270;48.148;11.648;2023-08-06T14:48:26;1.87;;;0.47;;
8466;SDS011;4270;48.148;11.648;2023-08-06T14:50:51;0.70;;;0.40;;
8466;SDS011;4270;48.148;11.648;2023-08-06T14:53:16;0.40;;;0.30;;
8466;SDS011;4270;48.148;11.648;2023-08-06T14:55:41;0.60;;;0.50;;
8466;SDS011;4270;48.148;11.648;2023-08-06T14:58:07;0.50;;;0.50;;
8466;SDS011;4270;48.148;11.648;2023-08-06T15:00:32;0.70;;;0.50;;